sensor_id;sensor_type;location;lat;lon;timestamp;P1;durP1;ratioP1;P2;durP2;ratioP2
51451;SDS011;37521;52.020;-1.740;2023-11-21T00:00:07;1.75;;;1.23;;
51451;SDS011;37521;52.020;-1.740;2023-11-21T00:02:40;1.20;;;1.10;;
51451;SDS011;37521;52.020;-1.740;2023-11-21T00:05:09;2.30;;;1.30;;
51451;SDS011;37521;52.020;-1.740;2023-11-21T00:07:41;1.02;;;1.02;;
51451;SDS011;37521;52.020;-1.740;2023-11-21T00:10:11;1.83;;;1.45;;
51451;SDS011;37521;52.020;-1.740;2023-11-21T00:12:41;1.35;;;1.25;;
51451;SDS011;37521;52.020;-1.740;2023-11-21T00:15:10;1.67;;;1.30;;
51451;SDS011;37521;52.020;-1.740;2023-11-21T00:17:39;3.40;;;1.75;;
51451;SDS011;37521;52.020;-1.740;2023-11-21T00:20:07;2.13;;;1.95;;
51451;SDS011;37521;52.020;-1.740;2023-11-21T00:22:41;4.22;;;2.25;;
51451;SDS011;37521;52.020;-1.740;2023-11-21T00:25:10;1.50;;;1.40;;
51451;SDS011;37521;52.020;-1.740;2023-11-21T00:27:42;1.75;;;1.63;;
51451;SDS011;37521;52.020;-1.740;2023-11-21T00:30:11;2.28;;;1.70;;
51451;SDS011;37521;52.020;-1.740;2023-11-21T00:32:40;1.98;;;1.85;;
51451;SDS011;37521;52.020;-1.740;2023-11-21T00:35:10;2.17;;;1.40;;
51451;SDS011;37521;52.020;-1.740;2023-11-21T00:37:38;2.67;;;1.67;;
51451;SDS011;37521;52.020;-1.740;2023-11-21T00:40:09;2.65;;;2.38;;
51451;SDS011;37521;52.020;-1.740;2023-11-21T00:42:38;1.70;;;1.60;;
51451;SDS011;37521;52.020;-1.740;2023-11-21T00:45:07;5.43;;;2.13;;
51451;SDS011;37521;52.020;-1.740;2023-11-21T00:47:36;1.58;;;1.48;;
51451;SDS011;37521;52.020;-1.740;2023-11-21T00:50:06;1.95;;;1.83;;
51451;SDS011;37521;52.020;-1.740;2023-11-21T00:52:36;3.75;;;1.77;;
51451;SDS011;37521;52.020;-1.740;2023-11-21T00:55:05;1.63;;;1.52;;
51451;SDS011;37521;52.020;-1.740;2023-11-21T00:57:36;3.70;;;1.67;;
51451;SDS011;37521;52.020;-1.740;2023-11-21T01:00:05;3.95;;;1.77;;
51451;SDS011;37521;52.020;-1.740;2023-11-21T01:02:37;2.58;;;2.17;;
51451;SDS011;37521;52.020;-1.740;2023-11-21T01:05:06;3.25;;;1.35;;
51451;SDS011;37521;52.020;-1.740;2023-11-21T01:07:34;2.00;;;1.58;;
51451;SDS011;37521;52.020;-1.740;2023-11-21T01:10:03;2.28;;;1.40;;
51451;SDS011;37521;52.020;-1.740;2023-11-21T01:12:35;2.53;;;1.92;;
51451;SDS011;37521;52.020;-1.740;2023-11-21T01:15:05;2.55;;;1.77;;
51451;SDS011;37521;52.020;-1.740;2023-11-21T01:17:35;1.98;;;1.42;;
51451;SDS011;37521;52.020;-1.740;2023-11-21T01:20:05;2.58;;;1.92;;
51451;SDS011;37521;52.020;-1.740;2023-11-21T01:22:40;1.90;;;1.67;;
51451;SDS011;37521;52.020;-1.740;2023-11-21T01:25:10;1.55;;;1.45;;
51451;SDS011;37521;52.020;-1.740;2023-11-21T01:27:43;2.38;;;1.70;;
51451;SDS011;37521;52.020;-1.740;2023-11-21T01:30:11;1.85;;;1.73;;
51451;SDS011;37521;52.020;-1.740;2023-11-21T01:32:43;1.92;;;1.63;;
51451;SDS011;37521;52.020;-1.740;2023-11-21T01:35:11;2.50;;;1.85;;
51451;SDS011;37521;52.020;-1.740;2023-11-21T01:37:40;2.47;;;2.13;;
51451;SDS011;37521;52.020;-1.740;2023-11-21T01:40:09;2.05;;;1.88;;
51451;SDS011;37521;52.020;-1.740;2023-11-21T01:42:43;2.35;;;1.95;;
51451;SDS011;37521;52.020;-1.740;2023-11-21T01:45:13;2.22;;;1.83;;
51451;SDS011;37521;52.020;-1.740;2023-11-21T01:47:42;2.38;;;2.17;;
51451;SDS011;37521;52.020;-1.740;2023-11-21T01:50:13;2.80;;;1.88;;
51451;SDS011;37521;52.020;-1.740;2023-11-21T01:52:45;2.53;;;2.17;;
51451;SDS011;37521;52.020;-1.740;2023-11-21T01:55:15;3.15;;;2.03;;
51451;SDS011;37521;52.020;-1.740;2023-11-21T01:57:56;4.45;;;2.38;;
51451;SDS011;37521;52.020;-1.740;2023-11-21T02:00:24;4.97;;;2.55;;
51451;SDS011;37521;52.020;-1.740;2023-11-21T02:02:56;5.22;;;2.70;;
51451;SDS011;37521;52.020;-1.740;2023-11-21T02:05:26;4.15;;;2.70;;
51451;SDS011;37521;52.020;-1.740;2023-11-21T02:07:58;6.35;;;2.90;;
51451;SDS011;37521;52.020;-1.740;2023-11-21T02:10:27;2.95;;;2.55;;
51451;SDS011;37521;52.020;-1.740;2023-11-21T02:12:59;3.47;;;2.38;;
51451;SDS011;37521;52.020;-1.740;2023-11-21T02:15:30;5.32;;;2.67;;
51451;SDS011;37521;52.020;-1.740;2023-11-21T02:17:58;3.85;;;2.72;;
51451;SDS011;37521;52.020;-1.740;2023-11-21T02:20:27;2.47;;;2.28;;
51451;SDS011;37521;52.020;-1.740;2023-11-21T02:22:58;3.88;;;2.67;;
51451;SDS011;37521;52.020;-1.740;2023-11-21T02:25:28;3.40;;;2.55;;
51451;SDS011;37521;52.020;-1.740;2023-11-21T02:28:00;4.93;;;3.17;;
51451;SDS011;37521;52.020;-1.740;2023-11-21T02:30:30;3.70;;;2.80;;
51451;SDS011;37521;52.020;-1.740;2023-11-21T02:32:59;3.80;;;2.30;;
51451;SDS011;37521;52.020;-1.740;2023-11-21T02:35:30;4.15;;;3.00;;
51451;SDS011;37521;52.020;-1.740;2023-11-21T02:38:00;2.33;;;2.13;;
51451;SDS011;37521;52.020;-1.740;2023-11-21T02:40:29;3.40;;;2.55;;
51451;SDS011;37521;52.020;-1.740;2023-11-21T02:42:58;2.60;;;2.40;;
51451;SDS011;37521;52.020;-1.740;2023-11-21T02:45:26;3.45;;;2.45;;
51451;SDS011;37521;52.020;-1.740;2023-11-21T02:47:55;3.20;;;2.38;;
51451;SDS011;37521;52.020;-1.740;2023-11-21T02:50:25;3.38;;;2.15;;
51451;SDS011;37521;52.020;-1.740;2023-11-21T02:52:54;1.92;;;1.83;;
51451;SDS011;37521;52.020;-1.740;2023-11-21T02:55:26;1.20;;;1.10;;
51451;SDS011;37521;52.020;-1.740;2023-11-21T02:57:55;1.88;;;1.15;;
51451;SDS011;37521;52.020;-1.740;2023-11-21T03:00:24;0.70;;;0.70;;
51451;SDS011;37521;52.020;-1.740;2023-11-21T03:02:54;0.55;;;0.52;;
51451;SDS011;37521;52.020;-1.740;2023-11-21T03:05:25;0.73;;;0.73;;
51451;SDS011;37521;52.020;-1.740;2023-11-21T03:07:53;0.80;;;0.80;;
51451;SDS011;37521;52.020;-1.740;2023-11-21T03:10:22;0.80;;;0.80;;
51451;SDS011;37521;52.020;-1.740;2023-11-21T03:12:52;0.60;;;0.60;;
51451;SDS011;37521;52.020;-1.740;2023-11-21T03:15:20;1.05;;;0.95;;
51451;SDS011;37521;52.020;-1.740;2023-11-21T03:17:49;0.77;;;0.75;;
51451;SDS011;37521;52.020;-1.740;2023-11-21T03:20:17;0.40;;;0.40;;
51451;SDS011;37521;52.020;-1.740;2023-11-21T03:22:46;0.50;;;0.50;;
51451;SDS011;37521;52.020;-1.740;2023-11-21T03:25:14;0.70;;;0.68;;
51451;SDS011;37521;52.020;-1.740;2023-11-21T03:27:44;0.55;;;0.55;;
51451;SDS011;37521;52.020;-1.740;2023-11-21T03:30:14;0.43;;;0.43;;
51451;SDS011;37521;52.020;-1.740;2023-11-21T03:32:43;0.50;;;0.40;;
51451;SDS011;37521;52.020;-1.740;2023-11-21T03:35:13;0.73;;;0.50;;
51451;SDS011;37521;52.020;-1.740;2023-11-21T03:37:42;0.88;;;0.88;;
51451;SDS011;37521;52.020;-1.740;2023-11-21T03:40:11;0.50;;;0.50;;
51451;SDS011;37521;52.020;-1.740;2023-11-21T03:42:40;0.60;;;0.45;;
51451;SDS011;37521;52.020;-1.740;2023-11-21T03:45:09;1.02;;;0.70;;
51451;SDS011;37521;52.020;-1.740;2023-11-21T03:47:41;1.02;;;0.82;;
51451;SDS011;37521;52.020;-1.740;2023-11-21T03:50:10;0.93;;;0.57;;
51451;SDS011;37521;52.020;-1.740;2023-11-21T03:52:39;0.85;;;0.75;;
51451;SDS011;37521;52.020;-1.740;2023-11-21T03:55:07;0.60;;;0.60;;
51451;SDS011;37521;52.020;-1.740;2023-11-21T03:57:40;0.95;;;0.75;;
51451;SDS011;37521;52.020;-1.740;2023-11-21T04:00:09;1.00;;;0.77;;
51451;SDS011;37521;52.020;-1.740;2023-11-21T04:02:41;0.65;;;0.65;;
51451;SDS011;37521;52.020;-1.740;2023-11-21T04:05:09;1.45;;;0.73;;
51451;SDS011;37521;52.020;-1.740;2023-11-21T04:07:38;1.17;;;0.88;;
51451;SDS011;37521;52.020;-1.740;2023-11-21T04:10:07;1.23;;;1.13;;
51451;SDS011;37521;52.020;-1.740;2023-11-21T04:12:36;1.63;;;1.00;;
51451;SDS011;37521;52.020;-1.740;2023-11-21T04:15:05;1.38;;;1.20;;
51451;SDS011;37521;52.020;-1.740;2023-11-21T04:17:35;1.42;;;1.33;;
51451;SDS011;37521;52.020;-1.740;2023-11-21T04:20:06;1.45;;;0.95;;
51451;SDS011;37521;52.020;-1.740;2023-11-21T04:22:37;3.63;;;1.13;;
51451;SDS011;37521;52.020;-1.740;2023-11-21T04:27:41;0.85;;;0.85;;
51451;SDS011;37521;52.020;-1.740;2023-11-21T04:30:11;1.08;;;0.98;;
51451;SDS011;37521;52.020;-1.740;2023-11-21T04:32:40;1.45;;;1.10;;
51451;SDS011;37521;52.020;-1.740;2023-11-21T04:35:11;1.10;;;0.65;;
51451;SDS011;37521;52.020;-1.740;2023-11-21T04:37:39;1.05;;;0.60;;
51451;SDS011;37521;52.020;-1.740;2023-11-21T04:40:08;1.25;;;0.50;;
51451;SDS011;37521;52.020;-1.740;2023-11-21T04:42:37;0.60;;;0.60;;
51451;SDS011;37521;52.020;-1.740;2023-11-21T04:45:06;0.73;;;0.50;;
51451;SDS011;37521;52.020;-1.740;2023-11-21T04:47:38;0.40;;;0.40;;
51451;SDS011;37521;52.020;-1.740;2023-11-21T04:50:07;0.90;;;0.52;;
51451;SDS011;37521;52.020;-1.740;2023-11-21T04:52:37;0.40;;;0.40;;
51451;SDS011;37521;52.020;-1.740;2023-11-21T04:55:06;0.98;;;0.47;;
51451;SDS011;37521;52.020;-1.740;2023-11-21T04:57:37;1.65;;;0.20;;
51451;SDS011;37521;52.020;-1.740;2023-11-21T05:00:09;0.28;;;0.10;;
51451;SDS011;37521;52.020;-1.740;2023-11-21T05:02:39;0.40;;;0.40;;
51451;SDS011;37521;52.020;-1.740;2023-11-21T05:05:09;0.20;;;0.20;;
51451;SDS011;37521;52.020;-1.740;2023-11-21T05:07:39;0.15;;;0.15;;
51451;SDS011;37521;52.020;-1.740;2023-11-21T05:10:08;0.20;;;0.20;;
51451;SDS011;37521;52.020;-1.740;2023-11-21T05:12:39;0.10;;;0.10;;
51451;SDS011;37521;52.020;-1.740;2023-11-21T05:15:09;0.10;;;0.10;;
51451;SDS011;37521;52.020;-1.740;2023-11-21T05:17:41;0.63;;;0.20;;
51451;SDS011;37521;52.020;-1.740;2023-11-21T05:20:12;0.20;;;0.20;;
51451;SDS011;37521;52.020;-1.740;2023-11-21T05:22:46;0.20;;;0.20;;
51451;SDS011;37521;52.020;-1.740;2023-11-21T05:25:15;1.85;;;0.30;;
51451;SDS011;37521;52.020;-1.740;2023-11-21T05:27:45;0.10;;;0.10;;
51451;SDS011;37521;52.020;-1.740;2023-11-21T05:30:13;1.08;;;0.38;;
51451;SDS011;37521;52.020;-1.740;2023-11-21T05:32:42;0.43;;;0.20;;
51451;SDS011;37521;52.020;-1.740;2023-11-21T05:35:11;0.60;;;0.30;;
51451;SDS011;37521;52.020;-1.740;2023-11-21T05:37:43;0.03;;;0.03;;
51451;SDS011;37521;52.020;-1.740;2023-11-21T05:40:14;0.73;;;0.17;;
51451;SDS011;37521;52.020;-1.740;2023-11-21T05:42:43;0.30;;;0.20;;
51451;SDS011;37521;52.020;-1.740;2023-11-21T05:45:12;0.40;;;0.38;;
51451;SDS011;37521;52.020;-1.740;2023-11-21T05:47:41;0.13;;;0.13;;
51451;SDS011;37521;52.020;-1.740;2023-11-21T05:50:10;0.65;;;0.50;;
51451;SDS011;37521;52.020;-1.740;2023-11-21T05:52:41;0.10;;;0.10;;
51451;SDS011;37521;52.020;-1.740;2023-11-21T05:55:10;0.30;;;0.17;;
51451;SDS011;37521;52.020;-1.740;2023-11-21T05:57:42;0.17;;;0.17;;
51451;SDS011;37521;52.020;-1.740;2023-11-21T06:00:12;0.10;;;0.10;;
51451;SDS011;37521;52.020;-1.740;2023-11-21T06:02:47;0.22;;;0.10;;
51451;SDS011;37521;52.020;-1.740;2023-11-21T06:05:17;0.20;;;0.20;;
51451;SDS011;37521;52.020;-1.740;2023-11-21T06:07:46;0.70;;;0.20;;
51451;SDS011;37521;52.020;-1.740;2023-11-21T06:10:15;0.25;;;0.20;;
51451;SDS011;37521;52.020;-1.740;2023-11-21T06:12:47;0.25;;;0.10;;
51451;SDS011;37521;52.020;-1.740;2023-11-21T06:15:16;0.10;;;0.10;;
51451;SDS011;37521;52.020;-1.740;2023-11-21T06:17:46;0.10;;;0.00;;
51451;SDS011;37521;52.020;-1.740;2023-11-21T06:20:19;0.33;;;0.20;;
51451;SDS011;37521;52.020;-1.740;2023-11-21T06:22:49;0.55;;;0.28;;
51451;SDS011;37521;52.020;-1.740;2023-11-21T06:25:18;0.20;;;0.20;;
51451;SDS011;37521;52.020;-1.740;2023-11-21T06:27:48;0.30;;;0.30;;
51451;SDS011;37521;52.020;-1.740;2023-11-21T06:30:18;0.10;;;0.10;;
51451;SDS011;37521;52.020;-1.740;2023-11-21T06:32:47;0.10;;;0.10;;
51451;SDS011;37521;52.020;-1.740;2023-11-21T06:35:17;0.10;;;0.10;;
51451;SDS011;37521;52.020;-1.740;2023-11-21T06:37:45;0.15;;;0.10;;
51451;SDS011;37521;52.020;-1.740;2023-11-21T06:40:16;0.20;;;0.20;;
51451;SDS011;37521;52.020;-1.740;2023-11-21T06:42:48;0.13;;;0.13;;
51451;SDS011;37521;52.020;-1.740;2023-11-21T06:45:18;0.28;;;0.28;;
51451;SDS011;37521;52.020;-1.740;2023-11-21T06:47:47;0.20;;;0.20;;
51451;SDS011;37521;52.020;-1.740;2023-11-21T06:50:16;0.30;;;0.30;;
51451;SDS011;37521;52.020;-1.740;2023-11-21T06:52:45;0.35;;;0.35;;
51451;SDS011;37521;52.020;-1.740;2023-11-21T06:55:14;0.30;;;0.30;;
51451;SDS011;37521;52.020;-1.740;2023-11-21T06:57:43;0.25;;;0.20;;
51451;SDS011;37521;52.020;-1.740;2023-11-21T07:00:13;0.20;;;0.20;;
51451;SDS011;37521;52.020;-1.740;2023-11-21T07:02:45;1.40;;;0.20;;
51451;SDS011;37521;52.020;-1.740;2023-11-21T07:05:14;0.25;;;0.25;;
51451;SDS011;37521;52.020;-1.740;2023-11-21T07:10:16;0.10;;;0.10;;
51451;SDS011;37521;52.020;-1.740;2023-11-21T07:12:44;0.30;;;0.30;;
51451;SDS011;37521;52.020;-1.740;2023-11-21T07:15:15;0.20;;;0.20;;
51451;SDS011;37521;52.020;-1.740;2023-11-21T07:17:43;0.20;;;0.20;;
51451;SDS011;37521;52.020;-1.740;2023-11-21T07:20:13;2.63;;;0.38;;
51451;SDS011;37521;52.020;-1.740;2023-11-21T07:22:44;0.20;;;0.20;;
51451;SDS011;37521;52.020;-1.740;2023-11-21T07:25:12;0.30;;;0.28;;
51451;SDS011;37521;52.020;-1.740;2023-11-21T07:27:41;0.20;;;0.20;;
51451;SDS011;37521;52.020;-1.740;2023-11-21T07:30:10;0.55;;;0.30;;
51451;SDS011;37521;52.020;-1.740;2023-11-21T07:32:41;0.15;;;0.15;;
51451;SDS011;37521;52.020;-1.740;2023-11-21T07:35:11;0.10;;;0.10;;
51451;SDS011;37521;52.020;-1.740;2023-11-21T07:37:39;0.28;;;0.20;;
51451;SDS011;37521;52.020;-1.740;2023-11-21T07:40:08;0.52;;;0.20;;
51451;SDS011;37521;52.020;-1.740;2023-11-21T07:42:38;0.30;;;0.30;;
51451;SDS011;37521;52.020;-1.740;2023-11-21T07:45:07;1.38;;;0.20;;
51451;SDS011;37521;52.020;-1.740;2023-11-21T07:47:36;0.50;;;0.10;;
51451;SDS011;37521;52.020;-1.740;2023-11-21T07:50:08;0.30;;;0.30;;
51451;SDS011;37521;52.020;-1.740;2023-11-21T07:52:37;0.93;;;0.30;;
51451;SDS011;37521;52.020;-1.740;2023-11-21T07:55:06;0.25;;;0.25;;
51451;SDS011;37521;52.020;-1.740;2023-11-21T07:57:35;1.02;;;0.40;;
51451;SDS011;37521;52.020;-1.740;2023-11-21T08:00:04;0.20;;;0.20;;
51451;SDS011;37521;52.020;-1.740;2023-11-21T08:02:39;3.35;;;0.32;;
51451;SDS011;37521;52.020;-1.740;2023-11-21T08:05:11;0.30;;;0.30;;
51451;SDS011;37521;52.020;-1.740;2023-11-21T08:07:50;0.80;;;0.40;;
51451;SDS011;37521;52.020;-1.740;2023-11-21T08:10:19;0.17;;;0.17;;
51451;SDS011;37521;52.020;-1.740;2023-11-21T08:12:48;0.30;;;0.20;;
51451;SDS011;37521;52.020;-1.740;2023-11-21T08:15:18;0.20;;;0.20;;
51451;SDS011;37521;52.020;-1.740;2023-11-21T08:17:46;0.15;;;0.15;;
51451;SDS011;37521;52.020;-1.740;2023-11-21T08:20:17;0.45;;;0.17;;
51451;SDS011;37521;52.020;-1.740;2023-11-21T08:22:46;0.10;;;0.10;;
51451;SDS011;37521;52.020;-1.740;2023-11-21T08:25:15;0.30;;;0.30;;
51451;SDS011;37521;52.020;-1.740;2023-11-21T08:27:47;0.10;;;0.10;;
51451;SDS011;37521;52.020;-1.740;2023-11-21T08:30:15;0.40;;;0.25;;
51451;SDS011;37521;52.020;-1.740;2023-11-21T08:32:46;1.30;;;0.45;;
51451;SDS011;37521;52.020;-1.740;2023-11-21T08:35:16;0.20;;;0.20;;
51451;SDS011;37521;52.020;-1.740;2023-11-21T08:37:45;0.30;;;0.30;;
51451;SDS011;37521;52.020;-1.740;2023-11-21T08:40:14;0.20;;;0.20;;
51451;SDS011;37521;52.020;-1.740;2023-11-21T08:42:44;0.10;;;0.10;;
51451;SDS011;37521;52.020;-1.740;2023-11-21T08:45:13;0.20;;;0.20;;
51451;SDS011;37521;52.020;-1.740;2023-11-21T08:47:41;0.57;;;0.57;;
51451;SDS011;37521;52.020;-1.740;2023-11-21T08:50:11;0.22;;;0.22;;
51451;SDS011;37521;52.020;-1.740;2023-11-21T08:52:41;0.20;;;0.20;;
51451;SDS011;37521;52.020;-1.740;2023-11-21T08:55:10;1.17;;;0.38;;
51451;SDS011;37521;52.020;-1.740;2023-11-21T08:57:40;1.08;;;0.40;;
51451;SDS011;37521;52.020;-1.740;2023-11-21T09:00:11;0.60;;;0.60;;
51451;SDS011;37521;52.020;-1.740;2023-11-21T09:02:42;0.50;;;0.50;;
51451;SDS011;37521;52.020;-1.740;2023-11-21T09:05:12;0.55;;;0.50;;
51451;SDS011;37521;52.020;-1.740;2023-11-21T09:07:43;2.50;;;0.50;;
51451;SDS011;37521;52.020;-1.740;2023-11-21T09:10:13;0.90;;;0.52;;
51451;SDS011;37521;52.020;-1.740;2023-11-21T09:12:41;2.20;;;0.55;;
51451;SDS011;37521;52.020;-1.740;2023-11-21T09:15:10;1.23;;;0.57;;
51451;SDS011;37521;52.020;-1.740;2023-11-21T09:17:39;0.30;;;0.30;;
51451;SDS011;37521;52.020;-1.740;2023-11-21T09:20:10;0.38;;;0.38;;
51451;SDS011;37521;52.020;-1.740;2023-11-21T09:22:39;0.70;;;0.40;;
51451;SDS011;37521;52.020;-1.740;2023-11-21T09:25:09;0.40;;;0.40;;
51451;SDS011;37521;52.020;-1.740;2023-11-21T09:27:38;1.13;;;0.80;;
51451;SDS011;37521;52.020;-1.740;2023-11-21T09:30:06;0.40;;;0.32;;
51451;SDS011;37521;52.020;-1.740;2023-11-21T09:32:37;0.38;;;0.38;;
51451;SDS011;37521;52.020;-1.740;2023-11-21T09:35:08;0.63;;;0.63;;
51451;SDS011;37521;52.020;-1.740;2023-11-21T09:37:37;1.50;;;1.13;;
51451;SDS011;37521;52.020;-1.740;2023-11-21T09:40:06;0.50;;;0.45;;
51451;SDS011;37521;52.020;-1.740;2023-11-21T09:42:43;0.80;;;0.65;;
51451;SDS011;37521;52.020;-1.740;2023-11-21T09:45:21;0.30;;;0.30;;
51451;SDS011;37521;52.020;-1.740;2023-11-21T09:47:53;1.08;;;0.50;;
51451;SDS011;37521;52.020;-1.740;2023-11-21T09:50:23;0.60;;;0.45;;
51451;SDS011;37521;52.020;-1.740;2023-11-21T09:53:06;0.40;;;0.40;;
51451;SDS011;37521;52.020;-1.740;2023-11-21T09:55:43;0.50;;;0.50;;
51451;SDS011;37521;52.020;-1.740;2023-11-21T09:58:13;1.50;;;0.50;;
51451;SDS011;37521;52.020;-1.740;2023-11-21T10:00:43;0.73;;;0.55;;
51451;SDS011;37521;52.020;-1.740;2023-11-21T10:03:13;0.90;;;0.43;;
51451;SDS011;37521;52.020;-1.740;2023-11-21T10:05:42;0.28;;;0.28;;
51451;SDS011;37521;52.020;-1.740;2023-11-21T10:08:13;0.80;;;0.65;;
51451;SDS011;37521;52.020;-1.740;2023-11-21T10:10:44;0.68;;;0.68;;
51451;SDS011;37521;52.020;-1.740;2023-11-21T10:13:15;0.70;;;0.45;;
51451;SDS011;37521;52.020;-1.740;2023-11-21T10:15:48;0.70;;;0.70;;
51451;SDS011;37521;52.020;-1.740;2023-11-21T10:18:18;0.57;;;0.57;;
51451;SDS011;37521;52.020;-1.740;2023-11-21T10:20:49;0.40;;;0.40;;
51451;SDS011;37521;52.020;-1.740;2023-11-21T10:23:21;0.60;;;0.55;;
51451;SDS011;37521;52.020;-1.740;2023-11-21T10:25:52;0.70;;;0.68;;
51451;SDS011;37521;52.020;-1.740;2023-11-21T10:28:24;0.70;;;0.70;;
51451;SDS011;37521;52.020;-1.740;2023-11-21T10:30:52;0.85;;;0.57;;
51451;SDS011;37521;52.020;-1.740;2023-11-21T10:33:26;1.08;;;0.80;;
51451;SDS011;37521;52.020;-1.740;2023-11-21T10:35:56;0.90;;;0.60;;
51451;SDS011;37521;52.020;-1.740;2023-11-21T10:38:24;1.17;;;0.63;;
51451;SDS011;37521;52.020;-1.740;2023-11-21T10:40:55;0.57;;;0.57;;
51451;SDS011;37521;52.020;-1.740;2023-11-21T10:43:24;2.33;;;0.52;;
51451;SDS011;37521;52.020;-1.740;2023-11-21T10:45:55;1.17;;;0.85;;
51451;SDS011;37521;52.020;-1.740;2023-11-21T10:48:26;0.90;;;0.85;;
51451;SDS011;37521;52.020;-1.740;2023-11-21T10:50:55;2.00;;;0.85;;
51451;SDS011;37521;52.020;-1.740;2023-11-21T10:53:24;2.20;;;1.42;;
51451;SDS011;37521;52.020;-1.740;2023-11-21T10:58:33;0.90;;;0.75;;
51451;SDS011;37521;52.020;-1.740;2023-11-21T11:01:05;1.92;;;0.70;;
51451;SDS011;37521;52.020;-1.740;2023-11-21T11:03:38;1.25;;;0.68;;
51451;SDS011;37521;52.020;-1.740;2023-11-21T11:06:07;0.82;;;0.75;;
51451;SDS011;37521;52.020;-1.740;2023-11-21T11:08:38;0.38;;;0.38;;
51451;SDS011;37521;52.020;-1.740;2023-11-21T11:11:09;1.02;;;0.90;;
51451;SDS011;37521;52.020;-1.740;2023-11-21T11:13:39;1.35;;;0.40;;
51451;SDS011;37521;52.020;-1.740;2023-11-21T11:16:12;1.08;;;0.98;;
51451;SDS011;37521;52.020;-1.740;2023-11-21T11:18:44;1.63;;;0.95;;
51451;SDS011;37521;52.020;-1.740;2023-11-21T11:21:18;1.00;;;0.75;;
51451;SDS011;37521;52.020;-1.740;2023-11-21T11:24:04;1.60;;;0.52;;
51451;SDS011;37521;52.020;-1.740;2023-11-21T11:26:46;3.05;;;0.75;;
51451;SDS011;37521;52.020;-1.740;2023-11-21T11:29:23;0.77;;;0.77;;
51451;SDS011;37521;52.020;-1.740;2023-11-21T11:32:03;1.45;;;0.40;;
51451;SDS011;37521;52.020;-1.740;2023-11-21T11:34:41;0.82;;;0.80;;
51451;SDS011;37521;52.020;-1.740;2023-11-21T11:37:16;0.40;;;0.40;;
51451;SDS011;37521;52.020;-1.740;2023-11-21T11:39:46;0.30;;;0.30;;
51451;SDS011;37521;52.020;-1.740;2023-11-21T11:42:17;2.75;;;0.68;;
51451;SDS011;37521;52.020;-1.740;2023-11-21T11:44:47;0.70;;;0.55;;
51451;SDS011;37521;52.020;-1.740;2023-11-21T11:47:20;0.30;;;0.30;;
51451;SDS011;37521;52.020;-1.740;2023-11-21T11:49:56;1.70;;;0.50;;
51451;SDS011;37521;52.020;-1.740;2023-11-21T11:52:32;0.30;;;0.30;;
51451;SDS011;37521;52.020;-1.740;2023-11-21T11:55:06;0.55;;;0.55;;
51451;SDS011;37521;52.020;-1.740;2023-11-21T11:57:39;0.93;;;0.60;;
51451;SDS011;37521;52.020;-1.740;2023-11-21T12:00:10;0.60;;;0.60;;
51451;SDS011;37521;52.020;-1.740;2023-11-21T12:02:48;0.68;;;0.57;;
51451;SDS011;37521;52.020;-1.740;2023-11-21T12:05:18;0.93;;;0.60;;
51451;SDS011;37521;52.020;-1.740;2023-11-21T12:07:49;0.55;;;0.45;;
51451;SDS011;37521;52.020;-1.740;2023-11-21T12:10:20;0.95;;;0.65;;
51451;SDS011;37521;52.020;-1.740;2023-11-21T12:12:54;0.88;;;0.70;;
51451;SDS011;37521;52.020;-1.740;2023-11-21T12:15:23;5.95;;;1.48;;
51451;SDS011;37521;52.020;-1.740;2023-11-21T12:17:52;2.72;;;0.98;;
51451;SDS011;37521;52.020;-1.740;2023-11-21T12:20:22;2.30;;;0.52;;
51451;SDS011;37521;52.020;-1.740;2023-11-21T12:22:52;3.80;;;1.60;;
51451;SDS011;37521;52.020;-1.740;2023-11-21T12:25:22;2.20;;;0.60;;
51451;SDS011;37521;52.020;-1.740;2023-11-21T12:27:52;3.38;;;1.95;;
51451;SDS011;37521;52.020;-1.740;2023-11-21T12:30:21;5.30;;;1.23;;
51451;SDS011;37521;52.020;-1.740;2023-11-21T12:32:51;2.03;;;1.48;;
51451;SDS011;37521;52.020;-1.740;2023-11-21T12:35:21;0.65;;;0.40;;
51451;SDS011;37521;52.020;-1.740;2023-11-21T12:37:51;1.73;;;0.93;;
51451;SDS011;37521;52.020;-1.740;2023-11-21T12:40:20;5.32;;;1.00;;
51451;SDS011;37521;52.020;-1.740;2023-11-21T12:42:51;1.73;;;1.05;;
51451;SDS011;37521;52.020;-1.740;2023-11-21T12:45:22;2.28;;;1.10;;
51451;SDS011;37521;52.020;-1.740;2023-11-21T12:47:54;3.63;;;1.13;;
51451;SDS011;37521;52.020;-1.740;2023-11-21T12:50:27;3.53;;;1.38;;
51451;SDS011;37521;52.020;-1.740;2023-11-21T12:52:59;1.80;;;1.23;;
51451;SDS011;37521;52.020;-1.740;2023-11-21T12:55:30;6.18;;;1.90;;
51451;SDS011;37521;52.020;-1.740;2023-11-21T12:58:02;8.57;;;1.63;;
51451;SDS011;37521;52.020;-1.740;2023-11-21T13:00:37;2.10;;;1.23;;
51451;SDS011;37521;52.020;-1.740;2023-11-21T13:03:09;2.42;;;1.20;;
51451;SDS011;37521;52.020;-1.740;2023-11-21T13:05:44;3.30;;;1.35;;
51451;SDS011;37521;52.020;-1.740;2023-11-21T13:08:19;2.92;;;1.42;;
51451;SDS011;37521;52.020;-1.740;2023-11-21T13:10:50;2.80;;;1.20;;
51451;SDS011;37521;52.020;-1.740;2023-11-21T13:13:24;1.30;;;0.70;;
51451;SDS011;37521;52.020;-1.740;2023-11-21T13:15:55;3.47;;;0.77;;
51451;SDS011;37521;52.020;-1.740;2023-11-21T13:18:27;0.50;;;0.50;;
51451;SDS011;37521;52.020;-1.740;2023-11-21T13:20:58;3.38;;;0.55;;
51451;SDS011;37521;52.020;-1.740;2023-11-21T13:23:28;3.47;;;0.77;;
51451;SDS011;37521;52.020;-1.740;2023-11-21T13:26:03;1.92;;;0.30;;
51451;SDS011;37521;52.020;-1.740;2023-11-21T13:28:35;1.27;;;0.55;;
51451;SDS011;37521;52.020;-1.740;2023-11-21T13:31:05;4.18;;;0.50;;
51451;SDS011;37521;52.020;-1.740;2023-11-21T13:33:48;1.00;;;0.73;;
51451;SDS011;37521;52.020;-1.740;2023-11-21T13:36:23;2.22;;;0.77;;
51451;SDS011;37521;52.020;-1.740;2023-11-21T13:38:57;0.88;;;0.82;;
51451;SDS011;37521;52.020;-1.740;2023-11-21T13:41:31;0.50;;;0.50;;
51451;SDS011;37521;52.020;-1.740;2023-11-21T13:44:01;0.60;;;0.40;;
51451;SDS011;37521;52.020;-1.740;2023-11-21T13:46:42;0.70;;;0.70;;
51451;SDS011;37521;52.020;-1.740;2023-11-21T13:49:13;2.05;;;0.63;;
51451;SDS011;37521;52.020;-1.740;2023-11-21T13:51:43;0.45;;;0.40;;
51451;SDS011;37521;52.020;-1.740;2023-11-21T13:54:15;3.70;;;0.73;;
51451;SDS011;37521;52.020;-1.740;2023-11-21T13:56:43;0.47;;;0.47;;
51451;SDS011;37521;52.020;-1.740;2023-11-21T13:59:17;0.93;;;0.50;;
51451;SDS011;37521;52.020;-1.740;2023-11-21T14:01:50;0.98;;;0.45;;
51451;SDS011;37521;52.020;-1.740;2023-11-21T14:04:24;1.17;;;0.80;;
51451;SDS011;37521;52.020;-1.740;2023-11-21T14:07:12;0.70;;;0.70;;
51451;SDS011;37521;52.020;-1.740;2023-11-21T14:09:51;2.03;;;0.75;;
51451;SDS011;37521;52.020;-1.740;2023-11-21T14:12:20;4.03;;;0.88;;
51451;SDS011;37521;52.020;-1.740;2023-11-21T14:14:50;2.10;;;0.65;;
51451;SDS011;37521;52.020;-1.740;2023-11-21T14:17:19;2.97;;;1.20;;
51451;SDS011;37521;52.020;-1.740;2023-11-21T14:19:49;1.77;;;1.10;;
51451;SDS011;37521;52.020;-1.740;2023-11-21T14:22:17;1.55;;;0.70;;
51451;SDS011;37521;52.020;-1.740;2023-11-21T14:24:47;1.13;;;1.02;;
51451;SDS011;37521;52.020;-1.740;2023-11-21T14:27:17;0.82;;;0.77;;
51451;SDS011;37521;52.020;-1.740;2023-11-21T14:29:45;2.30;;;0.80;;
51451;SDS011;37521;52.020;-1.740;2023-11-21T14:32:16;0.63;;;0.63;;
51451;SDS011;37521;52.020;-1.740;2023-11-21T14:34:45;1.80;;;1.15;;
51451;SDS011;37521;52.020;-1.740;2023-11-21T14:37:15;2.28;;;1.20;;
51451;SDS011;37521;52.020;-1.740;2023-11-21T14:39:43;1.05;;;1.00;;
51451;SDS011;37521;52.020;-1.740;2023-11-21T14:42:15;1.90;;;1.05;;
51451;SDS011;37521;52.020;-1.740;2023-11-21T14:44:51;2.60;;;1.13;;
51451;SDS011;37521;52.020;-1.740;2023-11-21T14:47:23;1.52;;;0.80;;
51451;SDS011;37521;52.020;-1.740;2023-11-21T14:49:52;1.60;;;0.80;;
51451;SDS011;37521;52.020;-1.740;2023-11-21T14:52:23;1.30;;;1.20;;
51451;SDS011;37521;52.020;-1.740;2023-11-21T14:55:01;1.25;;;1.15;;
51451;SDS011;37521;52.020;-1.740;2023-11-21T14:57:43;2.15;;;1.52;;
51451;SDS011;37521;52.020;-1.740;2023-11-21T15:00:17;2.95;;;1.38;;